Novohrad, Texas
Current Conditions -  °F | °C
As of 4:35 AM on Monday 26 Jan 2015 (Local Time) from KT20 Reporting Station
Clear Clear  
Wind Chill: 44°   Ceiling: Unl
Heat Index: 44°   Visibility: 10mi
Dew Point: 34°   Wind: 3mph
Humidity: 69%   Direction: 330°NNW
Pressure: 30.22"   Gusts: NA
Location:  29.5667°N, 97.0723°W
Report Text: KT20 261035Z AUTO 33003KT 10SM CLR 07/01 A3022 RMK AO2 T00650011
Loading
Personal Weather Stations






























Interactive Weather Map New forecast layout! Learn more

10-Day Weather Forecast

Advertisements
Track Severe Weather on mobile